createdAt,value
2019-03-12T00:03:11.562Z,20.20
2019-03-12T00:08:15.794Z,18.50
2019-03-12T00:13:20.016Z,19.17
2019-03-12T00:18:24.261Z,20.43
2019-03-12T00:23:28.494Z,21.97
2019-03-12T00:28:32.725Z,20.10
2019-03-12T00:33:36.972Z,19.07
2019-03-12T00:38:41.207Z,18.23
2019-03-12T00:43:45.455Z,17.53
2019-03-12T00:48:49.687Z,22.70
2019-03-12T00:53:53.937Z,21.67
2019-03-12T00:58:58.165Z,20.43
2019-03-12T01:04:02.399Z,21.87
2019-03-12T01:09:08.971Z,19.50
2019-03-12T01:14:13.207Z,20.87
2019-03-12T01:19:17.441Z,21.13
2019-03-12T01:24:21.676Z,24.53
2019-03-12T01:29:25.909Z,29.90
2019-03-12T01:34:30.135Z,29.50
2019-03-12T01:39:34.381Z,24.30
2019-03-12T01:44:38.621Z,31.67
2019-03-12T01:49:42.870Z,29.07
2019-03-12T01:54:47.114Z,34.53
2019-03-12T01:59:51.308Z,34.20
2019-03-12T02:04:55.724Z,31.87
2019-03-12T02:09:59.964Z,31.70
2019-03-12T02:15:05.440Z,36.00
2019-03-12T02:20:12.153Z,34.03
2019-03-12T02:25:17.033Z,39.07
2019-03-12T02:30:21.693Z,33.87
2019-03-12T02:35:26.011Z,39.53
2019-03-12T02:40:30.254Z,36.07
2019-03-12T02:45:34.502Z,37.07
2019-03-12T02:50:38.728Z,34.27
2019-03-12T02:55:42.967Z,37.90
2019-03-12T03:00:47.196Z,42.03
2019-03-12T03:06:07.107Z,37.63
2019-03-12T03:11:11.366Z,38.13
2019-03-12T03:16:15.603Z,38.67
2019-03-12T03:21:19.846Z,41.10
2019-03-12T03:26:24.087Z,40.40
2019-03-12T03:31:28.355Z,40.73
2019-03-12T03:36:32.665Z,36.70
2019-03-12T03:41:37.197Z,43.93
2019-03-12T03:46:41.448Z,41.97
2019-03-12T03:51:45.723Z,37.00
2019-03-12T03:56:49.957Z,41.70
2019-03-12T04:01:54.215Z,39.37
2019-03-12T04:06:58.452Z,39.50
2019-03-12T04:12:02.718Z,42.97
2019-03-12T04:17:06.958Z,39.10
2019-03-12T04:22:11.271Z,38.17
2019-03-12T04:27:15.466Z,42.00
2019-03-12T04:32:19.707Z,34.10
2019-03-12T04:37:23.943Z,30.13
2019-03-12T04:42:28.177Z,33.87
2019-03-12T04:47:32.850Z,25.33
2019-03-12T04:52:37.097Z,29.63
2019-03-12T04:57:41.345Z,26.70
2019-03-12T05:02:45.585Z,25.77
2019-03-12T05:07:49.805Z,24.77
2019-03-12T05:12:54.067Z,26.10
2019-03-12T05:17:58.298Z,27.73
2019-03-12T05:23:02.525Z,30.37
2019-03-12T05:28:06.835Z,29.03
2019-03-12T05:33:11.077Z,27.77
2019-03-12T05:38:15.307Z,24.20
2019-03-12T05:43:19.538Z,25.27
2019-03-12T05:48:23.772Z,21.37
2019-03-12T05:53:41.846Z,22.10
2019-03-12T05:58:46.116Z,19.67
2019-03-12T06:03:50.345Z,25.97
2019-03-12T06:08:54.569Z,19.80
2019-03-12T06:13:58.807Z,17.13
2019-03-12T06:19:03.046Z,17.53
2019-03-12T06:24:07.277Z,21.13
2019-03-12T06:29:11.519Z,17.80
2019-03-12T06:34:19.930Z,12.57
2019-03-12T06:39:30.503Z,18.00
2019-03-12T06:44:39.145Z,16.60
2019-03-12T06:50:05.290Z,16.33
2019-03-12T06:55:25.307Z,18.23
2019-03-12T07:00:51.363Z,21.80
2019-03-12T07:06:20.700Z,19.37
2019-03-12T07:11:59.062Z,19.03
2019-03-12T07:17:20.536Z,18.97
2019-03-12T07:22:43.732Z,20.37
2019-03-12T07:27:53.914Z,23.47
2019-03-12T07:33:24.453Z,29.17
2019-03-12T07:38:34.213Z,25.33
2019-03-12T07:43:48.485Z,25.93
2019-03-12T07:49:14.620Z,23.63
2019-03-12T07:54:47.200Z,20.43
2019-03-12T08:00:10.432Z,21.03
2019-03-12T08:05:32.420Z,24.27
2019-03-12T08:10:54.174Z,19.57
2019-03-12T08:16:20.529Z,16.87
2019-03-12T08:21:49.674Z,23.77
2019-03-12T08:27:11.502Z,23.03
2019-03-12T08:32:34.497Z,23.53
2019-03-12T08:38:03.750Z,22.53
2019-03-12T08:43:36.035Z,34.30
2019-03-12T08:49:05.748Z,20.23
2019-03-12T08:54:28.923Z,24.10
2019-03-12T08:59:52.088Z,20.80
2019-03-12T09:05:24.179Z,20.03
2019-03-12T09:10:33.954Z,17.23
2019-03-12T09:15:53.953Z,19.67
2019-03-12T09:21:10.175Z,15.67
2019-03-12T09:26:26.691Z,13.17
2019-03-12T09:31:50.156Z,12.80
2019-03-12T09:37:22.404Z,10.03
2019-03-12T09:42:48.385Z,13.20
2019-03-12T09:48:02.066Z,13.30
2019-03-12T09:53:25.243Z,14.00
2019-03-12T09:58:47.363Z,8.40
2019-03-12T10:04:13.472Z,10.90
2019-03-12T10:09:42.536Z,13.93
2019-03-12T10:15:09.629Z,12.57
2019-03-12T10:20:35.664Z,9.73
2019-03-12T10:25:48.729Z,12.07
2019-03-12T10:31:04.729Z,18.57
2019-03-12T10:36:18.724Z,8.27
2019-03-12T10:41:44.777Z,15.97
2019-03-12T10:46:56.048Z,17.93
2019-03-12T10:52:00.277Z,7.40
2019-03-12T10:57:04.508Z,12.90
2019-03-12T11:02:08.998Z,8.00
2019-03-12T11:07:16.660Z,6.70
2019-03-12T11:12:19.187Z,9.10
2019-03-12T11:17:23.458Z,8.20
2019-03-12T11:22:27.730Z,22.77
2019-03-12T11:27:32.001Z,8.07
2019-03-12T11:32:36.244Z,9.53
2019-03-12T11:37:40.547Z,9.47
2019-03-12T11:42:44.910Z,7.67
2019-03-12T11:47:49.414Z,7.73
2019-03-12T11:52:57.742Z,6.43
2019-03-12T11:57:59.751Z,9.57
2019-03-12T12:03:04.177Z,5.37
2019-03-12T12:08:08.408Z,7.63
2019-03-12T12:13:12.636Z,5.00
2019-03-12T12:18:16.850Z,5.50
2019-03-12T12:23:21.136Z,5.47
2019-03-12T12:28:25.377Z,8.07
2019-03-12T12:33:29.615Z,4.40
2019-03-12T12:38:33.834Z,6.30
2019-03-12T12:43:38.062Z,7.40
2019-03-12T12:48:42.295Z,7.57
2019-03-12T12:53:46.531Z,5.10
2019-03-12T12:58:50.752Z,4.90
2019-03-12T13:03:55.096Z,5.83
2019-03-12T13:08:59.328Z,3.57
2019-03-12T13:14:03.559Z,7.27
2019-03-12T13:19:07.821Z,5.73
2019-03-12T13:24:12.046Z,8.73
2019-03-12T13:29:16.313Z,4.23
2019-03-12T13:34:20.532Z,5.43
2019-03-12T13:39:24.834Z,10.47
2019-03-12T13:44:29.060Z,5.63
2019-03-12T13:49:33.284Z,4.47
2019-03-12T13:54:37.533Z,7.70
2019-03-12T13:59:41.765Z,3.90
2019-03-12T14:04:45.998Z,4.53
2019-03-12T14:09:50.241Z,2.50
2019-03-12T14:14:54.477Z,3.40
2019-03-12T14:20:22.656Z,5.03
2019-03-12T14:25:26.884Z,7.50
2019-03-12T14:30:31.160Z,7.50
2019-03-12T14:35:35.395Z,7.80
2019-03-12T14:40:39.647Z,12.67
2019-03-12T14:45:50.583Z,7.37
2019-03-12T14:50:54.807Z,8.67
2019-03-12T14:55:59.038Z,10.17
2019-03-12T15:01:03.265Z,9.17
2019-03-12T15:06:07.807Z,10.60
2019-03-12T15:11:12.040Z,9.77
2019-03-12T15:16:16.285Z,10.67
2019-03-12T15:21:21.409Z,15.17
2019-03-12T15:26:25.730Z,13.00
2019-03-12T15:31:29.972Z,12.97
2019-03-12T15:36:34.237Z,15.93
2019-03-12T15:41:38.492Z,10.43
2019-03-12T15:46:42.752Z,9.00
2019-03-12T15:51:47.091Z,11.60
2019-03-12T15:56:51.341Z,13.30
2019-03-12T16:01:55.570Z,18.57
2019-03-12T16:07:01.504Z,13.63
2019-03-12T16:12:05.961Z,12.40
2019-03-12T16:17:10.251Z,12.37
2019-03-12T16:22:14.501Z,11.87
2019-03-12T16:27:18.740Z,11.33
2019-03-12T16:32:22.982Z,10.57
2019-03-12T16:37:28.294Z,12.23
2019-03-12T16:42:35.258Z,13.57
2019-03-12T16:47:38.494Z,9.90
2019-03-12T16:52:42.744Z,10.33
2019-03-12T16:57:46.979Z,10.63
2019-03-12T17:02:51.291Z,14.23
2019-03-12T17:07:55.589Z,10.23
2019-03-12T17:12:59.969Z,8.40
2019-03-12T17:18:04.207Z,11.03
2019-03-12T17:23:08.435Z,8.37
2019-03-12T17:28:12.684Z,5.77
2019-03-12T17:33:16.964Z,13.70
2019-03-12T17:38:21.199Z,7.63
2019-03-12T17:43:25.433Z,11.60
2019-03-12T17:48:29.686Z,8.40
2019-03-12T17:53:33.917Z,7.90
2019-03-12T17:58:38.178Z,6.77
2019-03-12T18:03:42.523Z,7.50
2019-03-12T18:08:47.017Z,11.03
2019-03-12T18:13:51.285Z,9.43
2019-03-12T18:18:55.635Z,10.27
2019-03-12T18:23:59.880Z,13.60
2019-03-12T18:29:04.261Z,8.37
2019-03-12T18:34:08.509Z,12.10
2019-03-12T18:39:12.768Z,8.87
2019-03-12T18:44:17.016Z,11.13
2019-03-12T18:49:21.257Z,11.03
2019-03-12T18:54:25.845Z,12.27
2019-03-12T18:59:30.127Z,10.47
2019-03-12T19:04:34.373Z,7.77
2019-03-12T19:09:39.883Z,13.93
2019-03-12T19:14:44.272Z,14.13
2019-03-12T19:19:48.690Z,12.17
2019-03-12T19:24:53.261Z,13.00
2019-03-12T19:29:57.746Z,13.67
2019-03-12T19:35:02.412Z,11.80
2019-03-12T19:40:08.977Z,9.37
2019-03-12T19:45:13.997Z,16.33
2019-03-12T19:50:19.156Z,14.20
2019-03-12T19:55:27.338Z,14.30
2019-03-12T20:00:34.079Z,13.57
2019-03-12T20:05:39.746Z,12.20
2019-03-12T20:11:33.186Z,8.93
2019-03-12T20:17:13.686Z,8.40
2019-03-12T20:22:57.828Z,7.63
2019-03-12T20:28:57.446Z,8.23
2019-03-12T20:34:44.544Z,10.67
2019-03-12T20:40:38.515Z,7.97
2019-03-12T20:46:32.512Z,9.80
2019-03-12T20:52:27.045Z,8.80
2019-03-12T20:58:10.516Z,5.93
2019-03-12T21:04:05.096Z,8.07
2019-03-12T21:09:53.063Z,9.27
2019-03-12T21:15:26.633Z,7.93
2019-03-12T21:21:21.907Z,12.73
2019-03-12T21:27:02.177Z,8.90
2019-03-12T21:32:07.113Z,14.87
2019-03-12T21:37:11.946Z,9.20
2019-03-12T21:42:16.811Z,9.60
2019-03-12T21:47:21.214Z,8.20
2019-03-12T21:52:25.647Z,9.60
2019-03-12T21:57:29.937Z,12.73
2019-03-12T22:02:34.237Z,13.53
2019-03-12T22:07:38.511Z,8.60
2019-03-12T22:12:42.765Z,11.13
2019-03-12T22:17:46.994Z,7.97
2019-03-12T22:23:02.318Z,9.67
2019-03-12T22:28:06.554Z,7.50
2019-03-12T22:33:10.793Z,9.17
2019-03-12T22:38:15.114Z,6.47
2019-03-12T22:43:19.362Z,10.40
2019-03-12T22:48:23.598Z,7.53
2019-03-12T22:53:27.853Z,7.27
2019-03-12T22:58:32.242Z,4.20
2019-03-12T23:03:36.494Z,5.43
2019-03-12T23:08:41.243Z,6.27
2019-03-12T23:13:45.522Z,9.93
2019-03-12T23:18:49.751Z,8.93
2019-03-12T23:23:54.009Z,5.57
2019-03-12T23:28:58.255Z,4.67
2019-03-12T23:34:02.503Z,6.10
2019-03-12T23:39:09.027Z,5.10
2019-03-12T23:44:13.261Z,5.20
2019-03-12T23:49:18.301Z,8.33
2019-03-12T23:54:22.523Z,7.27
2019-03-12T23:59:26.754Z,6.80
